KSAC/SAC METAR and TAF weather

Enter ICAO airport designator
Station Type Date Time Source
KSAC METAR 2022/12/04 12:53 UTC NOAA

KSAC 041253Z AUTO 00000KT -RA FEW004 OVC029 07/07 A3002 RMK AO2 RAB17 SLP164 P0002 T00720067


Station Type Date Time Source
KSAC Decoded METAR 2022/12/04 12:53 UTC NOAA

SACRAMENTO EXECUTIVE AIRPORT , CA, United States (KSAC) 38-30N 121-30W 11M
Dec 04, 2022 - 07:53 AM EST / 2022.12.04 1253 UTC
Wind: Calm:0
Sky conditions: overcast
Weather: light rain
Precipitation last hour: 0.02 inches
Temperature: 45.0 F (7.2 C)
Dew Point: 44.1 F (6.7 C)
Relative Humidity: 96%
Pressure (altimeter): 30.02 in. Hg (1016 hPa)
ob: KSAC 041253Z AUTO 00000KT -RA FEW004 OVC029 07/07 A3002 RMK AO2 RAB17 SLP164 P0002 T00720067
cycle: 13

Station Type Date Time Source
KSAC TAF 2022/12/04 12:33 UTC NOAA

TAF KSAC 041130Z 0412/0512 VRB03KT 1SM -SHRA BR OVC005
TEMPO 0412/0414 1/2SM FG OVC002
FM041400 18008KT 3SM BR OVC015
TEMPO 0414/0416 OVC007
FM041600 18010KT P6SM BKN015
TEMPO 0419/0421 27015KT 2SM SHRA OVC009
FM042100 20007KT P6SM VCSH BKN030
AMD NOT SKED

Example: see airport list